Allison, CO

7:28 PM MDT on July 31, 2015 (GMT -0600)
AMPT test site | | Change Station
CLOSE
Current Station
Personal Weather Station
Location: Durango, CO
Elevation: 6696 ft
Nearby Weather Stations

Elev 6696 ft 37.16 °N, 107.74 °W | Updated 33 seconds ago

Partly Cloudy
Partly Cloudy
68.0 °F
Feels Like 68.0 °F
N
4.0
Wind Variable Wind from NNW
Gusts 5.0 mph

Today
High -- | Low -- °F
--% Chance of Precip.
Yesterday
High -- | Low -- °F
Precip. -- in
6:14 AM 8:18 PM
Waxing Gibbous, 99% visible
Pressure 30.13 in
Visibility 10.0 miles
Clouds Scattered Clouds 12000 ft
Dew Point 53 °F
Humidity 58%
Rainfall -999.00 in
Snow Depth Not available.
UV 1 out of 12
Pollen 2.00 out of 12
Air Quality Not available.
Flu Activity Not available.
METAR KDRO 010053Z AUTO VRB03KT 10SM SCT120 20/11 A3035 RMK AO2 SLP202 T02000106

More Conditions Fewer Conditions

Pressure 30.13 in
Visibility 10.0 miles
Clouds Scattered Clouds 12000 ft
Dew Point 53 °F
Humidity 58%
Rainfall -999.00 in
Snow Depth Not available.
UV 1 out of 12
Pollen 2.00 out of 12
Air Quality Not available.
Flu Activity Not available.
METAR KDRO 010053Z AUTO VRB03KT 10SM SCT120 20/11 A3035 RMK AO2 SLP202 T02000106

More Conditions Fewer Conditions

10-Day Weather Forecast

×

Almanac

Astronomy

Jul. 31, 2015 Rise Set
Actual Time
Civil Twilight
Nautical Twilight
Astronomical Twilight
Moon
Length of Visible Light
Length of Day
Tomorrow will be .
, % of the Moon is Illuminated

Today's Extremes

State Highs State Lows

Community

WunderPhotos

Upload Photos

1,842,797 photos uploaded!

WunderBlogs® & News

Nearby

Air Quality

  Air Quality AQ Index Pollutant
Not available.

Snow Depth

Station Depth Elevation

Earthquake Activity

City Distance Mag. Time & Date
Minimum magnitude displayed is 2.5.

Coastal Water Temperatures

Place Temperature

Stations

Nearby Weather Stations

Station Location Temp. Windchill Dew Point Humidity Wind Precip. Elev Updated Type